Avonlea, Canada
Current Conditions -  °F | °C
As of 6:00 PM on Friday 24 Oct 2014 (Local Time) from CYMJ Reporting Station
Few Clouds Few Clouds  
Wind Chill: 44°   Ceiling: Unl
Heat Index: 48°   Visibility: 15mi
Dew Point: 34°   Wind: 9mph
Humidity: 57%   Direction: 260°W
Pressure: 29.94"   Gusts: NA
Location:  50.02°N, 105.07°W
Report Text: CYMJ 250000Z 26008KT 15SM FEW250 09/01 A2994 RMK CI1 LAST OBS/NEXT 261800 UTC SLP153
Loading
Personal Weather Stations






























Interactive Weather Map
Tropical Storm Tracking
New forecast layout! Learn more

10-Day Weather Forecast

Advertisements
Track Severe Weather on mobile